Bookmark and Share
Track history (hours):
 

E.r.bristol

Last reported at 2014-Apr-15 17:10 UTC. Time now 2014-Apr-16 19:28 UTC.
Position N 11°14' W 017°14'.

Length 188 m; draft 10.3 m.

Type: Cargo ship. MMSI: 636092151.

NotesDate/timePositionNaut miles runAvg speedWind from/ knotsBaromVisibWave heightAir tempDewpointWater temp
2014-Apr-15 17:10N 11°14' W 017°14'811.1
2014-Apr-15 16:26N 11°08' W 017°08'2311.0
2014-Apr-15 14:21N 10°52' W 016°52'8910.1
2014-Apr-15 05:33N 10°05' W 015°35'4611.6
2014-Apr-15 01:34N 09°45' W 014°53'1111.4
2014-Apr-15 00:34N 09°40' W 014°42'1211.5
2014-Apr-14 23:34N 09°35' W 014°32'1211.6
2014-Apr-14 22:34N 09°30' W 014°21'1211.7
2014-Apr-14 21:34N 09°25' W 014°11'1211.7
2014-Apr-14 20:34N 09°20' W 013°60'1110.7
2014-Apr-14 19:34N 09°19' W 013°49'10 9.9
2014-Apr-14 18:34N 09°27' W 013°43'4 3.9
2014-Apr-14 17:31N 09°31' W 013°43'0 0.0
2014-Apr-14 16:31N 09°31' W 013°43'0 0.0
2014-Apr-14 15:31N 09°31' W 013°43'0 0.0
2014-Apr-14 14:31N 09°31' W 013°43'0 0.0
2014-Apr-14 13:31N 09°31' W 013°43'0 0.0
2014-Apr-14 11:31N 09°31' W 013°43'0 0.0
2014-Apr-14 10:31N 09°31' W 013°43'0 0.0
2014-Apr-14 09:31N 09°31' W 013°43'0 0.0
2014-Apr-14 08:31N 09°31' W 013°43'0 0.0
2014-Apr-14 07:34N 09°31' W 013°43'0 0.0
2014-Apr-14 06:31N 09°31' W 013°43'0 0.0
2014-Apr-14 05:31N 09°31' W 013°43'0 0.0
2014-Apr-13 22:34N 09°31' W 013°43'0 0.0
2014-Apr-13 21:31N 09°31' W 013°43'0 0.0
2014-Apr-13 20:31N 09°31' W 013°43'0 0.0
2014-Apr-13 19:34N 09°31' W 013°43'0 0.0
2014-Apr-13 18:34N 09°31' W 013°43'0 0.0
2014-Apr-13 17:30N 09°31' W 013°43'0 0.0
2014-Apr-13 16:31N 09°31' W 013°43'0 0.0
2014-Apr-13 15:31N 09°31' W 013°43'0 0.0
2014-Apr-13 14:34N 09°31' W 013°43'0 0.0
2014-Apr-13 13:31N 09°31' W 013°43'0 0.0
2014-Apr-13 12:33N 09°31' W 013°43'0 0.0
2014-Apr-13 11:31N 09°31' W 013°43'0 0.0
2014-Apr-13 10:34N 09°31' W 013°43'0 0.0
2014-Apr-13 09:30N 09°31' W 013°43'0 0.0
2014-Apr-13 08:30N 09°31' W 013°43'0 0.0
2014-Apr-13 07:33N 09°31' W 013°43'0 0.0
2014-Apr-13 06:30N 09°31' W 013°43'0 0.0
2014-Apr-13 05:33N 09°31' W 013°43'0 0.0
2014-Apr-13 04:33N 09°31' W 013°43'0 0.0
2014-Apr-13 03:33N 09°31' W 013°43'0 0.0
2014-Apr-13 02:34N 09°31' W 013°43'0 0.0
2014-Apr-13 01:30N 09°31' W 013°43'0 0.0
2014-Apr-13 00:33N 09°31' W 013°43'0 0.0
2014-Apr-12 23:33N 09°31' W 013°43'0 0.0
2014-Apr-12 22:34N 09°31' W 013°43'0 0.0
2014-Apr-12 21:33N 09°31' W 013°43'0 0.0
2014-Apr-12 20:33N 09°31' W 013°43'0 0.0
2014-Apr-12 19:33N 09°31' W 013°43'0 0.0
2014-Apr-12 18:33N 09°31' W 013°43'0 0.0
2014-Apr-12 17:33N 09°31' W 013°43'0 0.0
2014-Apr-12 16:33N 09°31' W 013°43'0 0.0
2014-Apr-12 15:33N 09°31' W 013°43'0 0.0
2014-Apr-12 14:33N 09°31' W 013°43'0 0.0
2014-Apr-12 13:33N 09°31' W 013°43'0 0.0
2014-Apr-12 12:33N 09°31' W 013°43'0 0.0
2014-Apr-12 11:33N 09°31' W 013°43'0 0.0
2014-Apr-12 10:33N 09°31' W 013°43'0 0.0
2014-Apr-12 09:33N 09°31' W 013°43'0 0.0
2014-Apr-12 08:33N 09°31' W 013°43'0 0.0
2014-Apr-12 07:33N 09°31' W 013°43'0 0.0
2014-Apr-12 06:33N 09°31' W 013°43'0 0.0
2014-Apr-12 05:33N 09°31' W 013°43'0 0.0
2014-Apr-12 04:33N 09°31' W 013°43'0 0.0
2014-Apr-12 03:33N 09°31' W 013°43'0 0.0
2014-Apr-12 02:33N 09°31' W 013°43'0 0.0
2014-Apr-12 01:33N 09°31' W 013°43'0 0.0
2014-Apr-12 00:33N 09°31' W 013°43'0 0.0
2014-Apr-11 23:33N 09°31' W 013°43'0 0.0
2014-Apr-11 22:33N 09°31' W 013°43'0 0.0
2014-Apr-11 21:33N 09°31' W 013°43'0 0.0
2014-Apr-11 20:33N 09°31' W 013°43'1 1.0
2014-Apr-11 19:34N 09°31' W 013°44'3 3.4
2014-Apr-11 18:34N 09°27' W 013°43'1 0.9
2014-Apr-11 17:34N 09°26' W 013°43'0 0.1
2014-Apr-11 16:33N 09°26' W 013°43'1 1.5
2014-Apr-11 15:33N 09°25' W 013°43'0 0.0
2014-Apr-11 14:33N 09°25' W 013°43'0 0.1
2014-Apr-11 13:33N 09°25' W 013°43'0 0.1
2014-Apr-11 12:33N 09°25' W 013°43'0 0.1
2014-Apr-11 11:33N 09°25' W 013°43'0 0.0
2014-Apr-11 10:33N 09°25' W 013°43'0 0.0
2014-Apr-11 09:33N 09°25' W 013°43'0 0.0
2014-Apr-11 08:33N 09°25' W 013°43'0 0.1
2014-Apr-11 07:33N 09°25' W 013°43'0 0.1
2014-Apr-11 06:33N 09°25' W 013°43'0 0.0
2014-Apr-11 05:33N 09°25' W 013°43'0 0.0
2014-Apr-11 04:33N 09°25' W 013°43'0 0.0
2014-Apr-11 03:33N 09°25' W 013°43'0 0.0
2014-Apr-11 02:33N 09°25' W 013°43'0 0.0
2014-Apr-11 01:33N 09°25' W 013°43'0 0.0
2014-Apr-11 00:33N 09°25' W 013°43'0 0.0
2014-Apr-10 23:33N 09°25' W 013°43'0 0.0
2014-Apr-10 22:33N 09°25' W 013°43'0 0.0
2014-Apr-10 21:33N 09°25' W 013°43'0 0.0
2014-Apr-10 20:33N 09°25' W 013°43'0 0.0
2014-Apr-10 19:33N 09°25' W 013°43'0 0.0
2014-Apr-10 18:33N 09°25' W 013°43'0 0.0
2014-Apr-10 17:33N 09°25' W 013°43'0 0.0
2014-Apr-10 16:33N 09°25' W 013°43'0 0.0
2014-Apr-10 15:33N 09°25' W 013°43'0 0.0
2014-Apr-10 14:33N 09°25' W 013°43'0 0.0
2014-Apr-10 13:33N 09°25' W 013°43'0 0.0
2014-Apr-10 12:33N 09°25' W 013°43'0 0.1
2014-Apr-10 11:33N 09°25' W 013°43'0 0.1
2014-Apr-10 10:33N 09°25' W 013°43'0 0.0
2014-Apr-10 09:33N 09°25' W 013°43'0 0.0
2014-Apr-10 08:33N 09°25' W 013°43'0 0.0
2014-Apr-10 07:30N 09°25' W 013°43'0 0.0
2014-Apr-10 06:33N 09°25' W 013°43'0 0.0
2014-Apr-10 05:33N 09°25' W 013°43'0 0.1
2014-Apr-10 04:33N 09°25' W 013°43'0 0.0
2014-Apr-10 03:33N 09°25' W 013°43'0 0.1
2014-Apr-10 02:33N 09°25' W 013°43'0 0.0
2014-Apr-10 01:33N 09°25' W 013°43'0 0.0
2014-Apr-10 00:33N 09°25' W 013°43'0 0.0
2014-Apr-09 23:33N 09°25' W 013°43'0 0.0
2014-Apr-09 22:33N 09°25' W 013°43'0 0.0
2014-Apr-09 21:33N 09°25' W 013°43'0 0.0
2014-Apr-09 20:30N 09°25' W 013°43'0 0.0
2014-Apr-09 19:33N 09°25' W 013°43'0 0.0
2014-Apr-09 18:33N 09°25' W 013°43'0 0.1
2014-Apr-09 17:33N 09°25' W 013°43'0 0.1
2014-Apr-09 16:33N 09°25' W 013°43'0 0.0
2014-Apr-09 15:33N 09°25' W 013°43'0 0.2
2014-Apr-09 14:33N 09°25' W 013°43'3 3.2
2014-Apr-09 13:33N 09°21' W 013°44'  

Dump ship's entire track history

sailing weather and tide predictions

E.r.bristol — A8XQ6 — position and weather